Terminal Aerodrome Forecast
Issued by NWS Amarillo, TX

Home | Current Version | Previous Version | Text Only | Print | Product List | Glossary On
Versions: 1 2 3 4 5 6 7 8 9 10 11 12 13 14 15 16 17 18
000
FTUS44 KAMA 271600 AAB
TAFDHT
TAF AMD
KDHT 271609Z 2716/2812 19012G18KT P6SM SCT008 BKN100
     FM272000 20015G22KT P6SM VCTS BKN070CB
     FM280200 16013KT P6SM BKN100
     FM280800 22008KT P6SM BKN100=

USA.gov is the U.S. government's official web portal to all federal, state and local government web resources and services.